KRBD/RBD METAR and TAF weather

Enter ICAO airport designator
Station Type Date Time Source
KRBD METAR 2024/04/17 18:53 UTC NOAA

KRBD 171853Z 16010KT 10SM SCT024 28/22 A2993 RMK AO2 SLP126 T02830217


Station Type Date Time Source
KRBD Decoded METAR 2024/04/17 18:53 UTC NOAA

DALLAS EXECUTIVE AIRPORT, TX, United States (KRBD) 32-41N 096-52W 203M
Apr 17, 2024 - 02:53 PM EDT / 2024.04.17 1853 UTC
Wind: from the SSE (160 degrees) at 12 MPH (10 KT):0
Visibility: 10 mile(s):0
Sky conditions: partly cloudy
Temperature: 82.9 F (28.3 C)
Dew Point: 71.1 F (21.7 C)
Relative Humidity: 67%
Pressure (altimeter): 29.93 in. Hg (1013 hPa)
ob: KRBD 171853Z 16010KT 10SM SCT024 28/22 A2993 RMK AO2 SLP126 T02830217
cycle: 19

Station Type Date Time Source
KRBD TAF UTC NOAA

Error!

Example: see airport list